Latest Weather Observations for Witchcliffe

IDW60801

Issued at 6:34 pm WST Friday 26 February 2021 (issued every 10 minutes, with the page automatically refreshed every 10 minutes)

About weather observations | Map of weather stations | Latest weather observations for WA | Other Formats
Station Details ID: 009746 Name: WITCHCLIFFE Lat: -34.03 Lon: 115.10 Height: 80.0 m
Data from the previous 72 hours. | See also: Recent months at Witchcliffe
Date/Time
WST
Temp
°C
App
Temp
°C
Dew
Point
°C
Rel
Hum
%
Delta-T
°C
Wind Press
QNH
hPa
Press
MSL
hPa
Rain since
9am
mm
Dir  Spd
km/h
Gust
km/h
Spd
kts
Gust
kts
26/06:30pm 19.1 15.0 14.8 76 2.5 SSE 30 46 16 25 1014.4 1014.1 0.0
26/06:00pm 19.8 15.3 14.8 73 2.9 SSE 32 44 17 24 1014.3 1014.0 0.0
26/05:30pm 20.1 15.7 15.1 73 3.0 SSE 32 44 17 24 1013.9 1013.6 0.0
26/05:13pm 21.0 17.4 15.3 70 3.4 SSE 28 46 15 25 1013.7 1013.4 0.0
26/05:00pm 20.9 16.4 15.0 69 3.5 SSE 32 48 17 26 1013.6 1013.3 0.0
26/04:43pm 21.9 18.3 15.3 66 3.9 SSE 28 46 15 25 1013.3 1013.0 0.0
26/04:30pm 21.8 16.9 15.2 66 3.9 SSE 35 46 19 25 1013.1 1012.8 0.0
26/04:00pm 22.5 18.0 15.4 64 4.3 SSE 33 54 18 29 1012.9 1012.6 0.0
26/03:56pm 22.7 17.8 15.3 63 4.4 SSE 35 54 19 29 1012.8 1012.5 0.0
26/03:30pm 22.6 17.9 14.4 60 4.8 SSE 32 44 17 24 1012.8 1012.5 0.0
26/03:12pm 22.8 18.1 14.4 59 5.0 SSE 32 54 17 29 1012.8 1012.5 0.0
26/03:00pm 22.7 17.9 14.0 58 5.1 SSE 32 46 17 25 1012.9 1012.6 0.0
26/02:30pm 23.2 18.6 14.5 58 5.2 SE 32 54 17 29 1013.1 1012.8 0.0
26/02:00pm 22.7 18.1 14.5 60 4.8 SSE 32 52 17 28 1013.3 1013.0 0.0
26/01:30pm 22.4 17.8 14.5 61 4.7 SSE 32 41 17 22 1013.9 1013.6 0.0
26/01:14pm 22.5 18.6 14.4 60 4.8 SSE 28 46 15 25 1013.9 1013.6 0.0
26/01:00pm 22.0 18.2 14.6 63 4.4 SSE 28 41 15 22 1014.0 1013.7 0.0
26/12:30pm 22.5 20.1 15.4 64 4.3 SSE 22 32 12 17 1014.3 1014.0 0.0
26/12:00pm 20.4 17.4 14.7 70 3.3 SE 24 35 13 19 1014.7 1014.4 0.0
26/11:30am 20.7 17.8 13.9 65 3.9 SE 22 35 12 19 1015.0 1014.7 0.0
26/11:00am 20.9 18.1 14.3 66 3.9 SE 22 32 12 17 1015.3 1015.0 0.0
26/10:30am 20.8 17.6 13.0 61 4.5 SE 22 35 12 19 1015.4 1015.1 0.0
26/10:00am 20.0 16.0 13.0 64 4.0 SE 26 44 14 24 1015.5 1015.2 0.0
26/09:30am 20.4 16.2 13.4 64 4.0 SE 28 46 15 25 1015.5 1015.2 0.0
26/09:00am 20.6 16.3 13.3 63 4.2 SSE 28 44 15 24 1015.4 1015.1 0.2
26/08:30am 20.2 17.5 13.6 66 3.8 SE 20 35 11 19 1015.5 1015.2 0.2
26/08:00am 19.1 16.5 13.9 72 3.0 SE 20 32 11 17 1015.5 1015.2 0.2
26/07:30am 18.2 15.9 14.1 77 2.4 SE 19 28 10 15 1015.3 1015.0 0.2
26/07:00am 17.5 15.7 14.4 82 1.8 SE 17 26 9 14 1015.3 1015.0 0.2
26/06:30am 16.8 14.9 14.3 85 1.4 SE 17 24 9 13 1014.8 1014.5 0.2
26/06:00am 17.0 14.8 14.5 85 1.4 SE 19 32 10 17 1014.7 1014.4 0.2
26/05:30am 17.0 14.8 14.5 85 1.4 SE 19 30 10 16 1014.7 1014.4 0.2
26/05:00am 16.8 14.2 14.8 88 1.2 SE 22 32 12 17 1014.8 1014.5 0.2
26/04:30am 16.4 15.0 14.6 89 1.0 SE 15 28 8 15 1014.5 1014.2 0.2
26/04:00am 16.5 14.8 14.7 89 1.0 SE 17 32 9 17 1014.4 1014.1 0.2
26/03:30am 16.6 14.6 15.0 90 0.9 SE 19 32 10 17 1014.1 1013.8 0.2
26/03:00am 16.8 14.6 15.0 89 1.0 SE 20 32 11 17 1014.0 1013.7 0.2
26/02:30am 17.0 14.1 15.0 88 1.2 SE 24 39 13 21 1013.9 1013.6 0.2
26/02:00am 17.4 14.7 15.7 90 1.0 SE 24 35 13 19 1014.1 1013.8 0.2
26/01:30am 17.2 15.0 15.9 92 0.8 SE 22 43 12 23 1014.5 1014.2 0.2
26/01:00am 17.4 15.8 15.9 91 0.9 SSE 19 28 10 15 1015.1 1014.8 0.2
26/12:30am 17.6 15.9 16.3 92 0.8 SSE 20 30 11 16 1015.4 1015.1 0.2
26/12:00am 17.6 16.0 15.9 90 1.0 SSE 19 30 10 16 1015.5 1015.2 0.2
 
Date/Time
WST
Temp
°C
App
Temp
°C
Dew
Point
°C
Rel
Hum
%
Delta-T
°C
Wind Press
QNH
hPa
Press
MSL
hPa
Rain since
9am
mm
Dir  Spd
km/h
Gust
km/h
Spd
kts
Gust
kts
25/11:30pm 17.8 16.1 16.3 91 0.9 SSE 20 30 11 16 1015.5 1015.2 0.2
25/11:00pm 17.5 15.6 16.7 95 0.5 SSE 22 30 12 16 1015.5 1015.2 0.2
25/10:30pm 17.7 15.1 16.9 95 0.5 SSE 26 35 14 19 1015.7 1015.4 0.2
25/10:00pm 18.0 16.2 17.0 94 0.6 SSE 22 30 12 16 1015.9 1015.6 0.2
25/09:42pm 17.9 14.9 16.9 94 0.6 SSE 28 46 15 25 1015.9 1015.6 0.2
25/09:30pm 17.7 15.5 16.9 95 0.5 SSE 24 37 13 20 1016.0 1015.8 0.2
25/09:06pm 17.9 14.7 16.4 91 0.9 SSE 28 46 15 25 1016.3 1016.1 0.0
25/09:00pm 18.2 14.6 16.2 88 1.2 SSE 30 46 16 25 1016.1 1015.9 0.0
25/08:30pm 18.5 15.4 16.5 88 1.2 SSE 28 41 15 22 1016.0 1015.8 0.0
25/08:02pm 18.5 15.5 16.7 89 1.1 SSE 28 50 15 27 1015.6 1015.3 0.0
25/08:00pm 18.4 15.7 16.6 89 1.1 SSE 26 37 14 20 1015.6 1015.3 0.0
25/07:30pm 18.5 14.9 16.3 87 1.3 SSE 30 43 16 23 1015.2 1014.9 0.0
25/07:00pm 18.9 15.8 16.5 86 1.4 SSE 28 39 15 21 1015.1 1014.8 0.0
25/06:30pm 19.0 15.3 16.0 83 1.8 SSE 30 46 16 25 1014.9 1014.6 0.0
25/06:00pm 19.3 16.0 16.0 81 2.0 SSE 28 46 15 25 1014.7 1014.4 0.0
25/05:31pm 19.4 16.1 16.1 81 2.0 SSE 28 50 15 27 1014.4 1014.1 0.0
25/05:30pm 19.5 16.6 16.2 81 2.0 SSE 26 43 14 23 1014.4 1014.1 0.0
25/05:10pm 19.6 15.9 15.9 79 2.2 SE 30 48 16 26 1014.2 1013.9 0.0
25/05:00pm 19.9 16.6 16.0 78 2.3 SSE 28 39 15 21 1014.3 1014.0 0.0
25/04:50pm 20.1 16.7 15.9 77 2.5 SSE 28 48 15 26 1014.2 1013.9 0.0
25/04:30pm 20.3 16.6 16.1 77 2.5 SSE 30 46 16 25 1014.0 1013.7 0.0
25/04:20pm 20.4 16.7 16.0 76 2.6 SSE 30 48 16 26 1014.0 1013.7 0.0
25/04:00pm 20.4 16.7 16.0 76 2.6 SE 30 41 16 22 1014.5 1014.2 0.0
25/03:30pm 20.9 17.9 15.9 73 3.0 SSE 26 43 14 23 1014.4 1014.1 0.0
25/03:00pm 21.6 17.4 16.3 72 3.2 SSE 33 46 18 25 1014.5 1014.2 0.0
25/02:30pm 22.2 18.6 16.2 69 3.6 SSE 30 43 16 23 1014.5 1014.2 0.0
25/02:00pm 22.1 18.9 16.4 70 3.5 SSE 28 39 15 21 1014.9 1014.6 0.0
25/01:30pm 22.2 19.2 15.8 67 3.9 SSE 26 35 14 19 1015.0 1014.7 0.0
25/01:00pm 22.5 20.0 16.1 67 3.9 SSE 24 33 13 18 1014.9 1014.6 0.0
25/12:30pm 22.5 20.0 15.1 63 4.4 SE 22 35 12 19 1015.0 1014.7 0.0
25/12:00pm 22.2 19.5 14.6 62 4.5 SSE 22 32 12 17 1015.2 1014.9 0.0
25/11:30am 21.4 19.2 15.0 67 3.8 SSE 20 28 11 15 1016.0 1015.8 0.0
25/11:00am 21.9 19.9 15.0 65 4.1 SE 19 26 10 14 1016.2 1016.0 0.0
25/10:30am 21.5 20.2 14.9 66 3.9 SE 15 20 8 11 1016.4 1016.2 0.0
25/10:00am 21.0 18.8 14.4 66 3.9 SE 19 32 10 17 1016.5 1016.3 0.0
25/09:30am 21.0 18.7 14.6 67 3.8 SE 20 32 11 17 1016.4 1016.2 0.0
25/09:00am 20.6 19.0 14.9 70 3.4 SE 17 26 9 14 1016.5 1016.3 0.0
25/08:30am 19.7 16.9 14.3 71 3.1 SE 22 30 12 16 1016.7 1016.5 0.0
25/08:00am 19.3 17.1 15.0 76 2.5 SE 20 28 11 15 1016.5 1016.3 0.0
25/07:30am 18.5 17.2 15.7 84 1.7 SSE 17 22 9 12 1016.5 1016.3 0.0
25/07:00am 17.1 15.5 15.1 88 1.2 SE 17 24 9 13 1016.5 1016.3 0.0
25/06:30am 16.0 14.6 14.4 90 0.9 SE 15 20 8 11 1016.0 1015.8 0.0
25/06:00am 15.4 14.4 13.4 88 1.1 SE 11 19 6 10 1015.3 1015.0 0.0
25/05:30am 15.7 14.2 13.0 84 1.5 SE 13 15 7 8 1016.0 1015.8 0.0
25/05:00am 15.8 14.3 13.1 84 1.5 SSE 13 19 7 10 1016.0 1015.8 0.0
25/04:30am 15.7 14.2 13.2 85 1.4 SSE 13 19 7 10 1016.0 1015.8 0.0
25/04:00am 16.1 14.3 13.2 83 1.6 SSE 15 20 8 11 1015.8 1015.5 0.0
25/03:30am 16.2 14.8 13.3 83 1.6 SE 13 22 7 12 1015.6 1015.3 0.0
25/03:00am 16.3 14.9 13.4 83 1.6 SSE 13 20 7 11 1015.8 1015.5 0.0
25/02:30am 16.5 14.8 13.6 83 1.6 SE 15 19 8 10 1015.6 1015.3 0.0
25/02:00am 16.7 15.4 13.6 82 1.8 SE 13 20 7 11 1015.8 1015.5 0.0
25/01:30am 16.6 15.3 13.7 83 1.6 SSE 13 20 7 11 1016.0 1015.8 0.0
25/01:00am 16.9 14.9 14.0 83 1.7 SE 17 24 9 13 1015.9 1015.6 0.0
25/12:30am 16.9 15.3 14.0 83 1.7 SSE 15 20 8 11 1016.1 1015.9 0.0
25/12:00am 17.2 15.7 14.1 82 1.8 SE 15 20 8 11 1016.3 1016.1 0.0
 
Date/Time
WST
Temp
°C
App
Temp
°C
Dew
Point
°C
Rel
Hum
%
Delta-T
°C
Wind Press
QNH
hPa
Press
MSL
hPa
Rain since
9am
mm
Dir  Spd
km/h
Gust
km/h
Spd
kts
Gust
kts
24/11:30pm 17.3 15.8 14.2 82 1.8 SSE 15 20 8 11 1016.4 1016.2 0.0
24/11:00pm 17.4 16.2 14.1 81 1.9 SSE 13 19 7 10 1016.4 1016.2 0.0
24/10:30pm 17.9 16.4 14.2 79 2.1 SSE 15 20 8 11 1016.7 1016.5 0.0
24/10:00pm 18.2 16.7 14.3 78 2.2 SE 15 22 8 12 1016.5 1016.3 0.0
24/09:30pm 18.5 17.1 14.4 77 2.4 SE 15 20 8 11 1016.7 1016.5 0.0
24/09:00pm 18.6 17.3 14.7 78 2.3 SE 15 20 8 11 1016.6 1016.4 0.0
24/08:30pm 18.9 17.7 15.0 78 2.3 SE 15 22 8 12 1016.4 1016.2 0.0
24/08:00pm 19.2 18.2 15.5 79 2.2 SE 15 20 8 11 1016.1 1015.9 0.0
24/07:30pm 19.6 17.7 15.7 78 2.3 SE 20 26 11 14 1015.6 1015.3 0.0
24/07:00pm 20.3 18.4 15.7 75 2.7 SSE 20 30 11 16 1015.3 1015.0 0.0
24/06:30pm 21.1 18.5 15.9 72 3.1 SSE 24 37 13 20 1015.1 1014.8 0.0
24/06:00pm 22.1 18.8 16.1 69 3.6 SSE 28 39 15 21 1015.0 1014.7 0.0
24/05:30pm 22.8 20.4 16.4 67 3.9 SSE 24 39 13 21 1014.8 1014.5 0.0
24/05:00pm 23.6 20.4 16.4 64 4.4 SSE 28 44 15 24 1014.9 1014.6 0.0
24/04:30pm 23.5 19.3 16.3 64 4.4 SSE 33 44 18 24 1014.8 1014.5 0.0
24/04:00pm 23.9 20.0 16.4 63 4.6 SSE 32 48 17 26 1014.7 1014.4 0.0
24/03:45pm 24.7 21.7 16.7 61 4.9 SSE 28 48 15 26 1014.9 1014.6 0.0
24/03:30pm 24.9 21.9 16.9 61 5.0 SSE 28 43 15 23 1015.0 1014.7 0.0
24/03:13pm 24.7 21.5 16.4 60 5.1 SSE 28 46 15 25 1015.2 1014.9 0.0
24/03:00pm 24.6 21.3 16.1 59 5.2 SE 28 41 15 22 1015.2 1014.9 0.0
24/02:59pm 24.8 21.6 16.2 58 5.3 SE 28 46 15 25 1015.2 1014.9 0.0
24/02:30pm 25.1 21.3 16.8 60 5.1 SSE 32 43 17 23 1015.4 1015.1 0.0
24/02:00pm 25.4 21.9 16.5 58 5.5 SSE 30 41 16 22 1015.7 1015.4 0.0
24/01:30pm 25.6 22.5 15.6 54 6.1 SSE 26 39 14 21 1015.9 1015.6 0.0
24/01:00pm 25.2 22.2 15.8 56 5.7 SSE 26 35 14 19 1016.1 1015.9 0.0
24/12:30pm 25.2 22.3 15.2 54 6.0 SSE 24 32 13 17 1016.5 1016.3 0.0
24/12:00pm 24.8 21.9 16.0 58 5.4 SSE 26 39 14 21 1016.9 1016.7 0.0
24/11:30am 24.3 22.1 16.0 60 5.1 SE 22 35 12 19 1017.1 1016.9 0.0
24/11:00am 25.0 23.5 16.7 60 5.1 SE 20 37 11 20 1017.4 1017.2 0.0
24/10:30am 24.0 21.7 15.8 60 5.0 SE 22 35 12 19 1017.5 1017.3 0.0
24/10:00am 23.0 21.1 15.3 62 4.6 SE 19 30 10 16 1017.6 1017.4 0.0
24/09:30am 22.0 19.8 14.9 64 4.2 SE 20 39 11 21 1017.7 1017.5 0.0
24/09:00am 21.3 18.6 15.6 70 3.4 SE 24 41 13 22 1017.7 1017.5 0.0
24/08:30am 20.4 17.2 15.2 72 3.1 SE 26 35 14 19 1017.7 1017.5 0.0
24/08:00am 19.8 18.2 16.1 79 2.2 SE 19 35 10 19 1017.8 1017.6 0.0
24/07:30am 18.8 17.8 16.6 87 1.3 SE 17 26 9 14 1017.8 1017.6 0.0
24/07:00am 17.7 16.9 16.2 91 0.9 SE 15 20 8 11 1017.7 1017.5 0.0
24/06:30am 17.1 16.6 15.8 92 0.8 SE 13 17 7 9 1017.4 1017.2 0.0
24/06:00am 16.8 15.7 15.3 91 0.9 SE 15 20 8 11 1017.1 1016.9 0.0
24/05:30am 16.9 15.8 15.2 90 1.0 SE 15 22 8 12 1016.8 1016.6 0.0
24/05:00am 17.0 15.9 15.2 89 1.0 SE 15 24 8 13 1016.6 1016.4 0.0
24/04:30am 17.0 15.5 15.2 89 1.0 SE 17 26 9 14 1016.6 1016.4 0.0
24/04:00am 16.9 15.7 15.1 89 1.0 SE 15 20 8 11 1016.4 1016.2 0.0
24/03:30am 16.9 15.7 15.1 89 1.0 SE 15 24 8 13 1016.4 1016.2 0.0
24/03:00am 17.2 15.7 15.4 89 1.1 SE 17 22 9 12 1016.5 1016.3 0.0
24/02:30am 17.5 16.6 15.8 90 1.0 SE 15 22 8 12 1016.6 1016.4 0.0
24/02:00am 17.9 16.7 16.1 89 1.1 SE 17 22 9 12 1016.6 1016.4 0.0
24/01:30am 18.2 17.0 16.0 87 1.3 SE 17 24 9 13 1016.7 1016.5 0.0
24/01:00am 18.4 16.9 16.2 87 1.3 SE 19 28 10 15 1016.9 1016.7 0.0
24/12:30am 18.5 16.4 16.3 87 1.3 SE 22 28 12 15 1017.2 1017.0 0.0
24/12:00am 18.8 16.9 16.8 88 1.2 SE 22 30 12 16 1017.3 1017.1 0.0
 
Date/Time
WST
Temp
°C
App
Temp
°C
Dew
Point
°C
Rel
Hum
%
Delta-T
°C
Wind Press
QNH
hPa
Press
MSL
hPa
Rain since
9am
mm
Dir  Spd
km/h
Gust
km/h
Spd
kts
Gust
kts
23/11:30pm 18.8 17.1 17.1 90 1.0 SSE 22 28 12 15 1017.2 1017.0 0.0
23/11:00pm 18.7 17.5 17.4 92 0.8 SSE 20 28 11 15 1017.1 1016.9 0.0
23/10:30pm 18.4 16.3 17.2 93 0.7 SSE 24 35 13 19 1017.2 1017.0 0.0
23/10:00pm 18.5 16.8 17.3 93 0.7 SE 22 32 12 17 1017.1 1016.9 0.0
23/09:30pm 18.6 17.4 17.4 93 0.7 SE 20 28 11 15 1017.2 1017.0 0.0
23/09:00pm 18.6 17.5 17.3 92 0.8 SE 19 26 10 14 1017.3 1017.1 0.0
23/08:30pm 18.8 17.5 17.3 91 0.9 SE 20 30 11 16 1017.0 1016.8 0.0
23/08:00pm 19.0 17.7 17.3 90 1.0 SSE 20 30 11 16 1016.7 1016.5 0.0
23/07:30pm 19.3 18.2 17.3 88 1.2 SSE 19 26 10 14 1016.4 1016.2 0.0
23/07:00pm 19.9 18.7 17.1 84 1.7 SSE 19 28 10 15 1016.2 1016.0 0.0

Other formats

Comma delimited format used in spreadsheet applications
http://www.bom.gov.au/fwo/IDW60801/IDW60801.95641.axf

JavaScript Object Notation format (JSON) in row-major order
http://www.bom.gov.au/fwo/IDW60801/IDW60801.95641.json

Data quality

Most of these data are generated automatically and are frequently updated. Quality checks on data are not normally performed. It is possible for incorrect values to appear. Refer to information at About Latest Weather Observations and please check the disclaimer before using these data.